»·PEaware :: DAL481 KLAX-KSLC

DAL481 :: KLAX-KSLC

FLIGHT INFORMATION

Flight Status: Arrived
Operator:
Delta Air Lines
More flights by this operator :: More flights under this callsign
Pilot: John L. (29598)
Aircraft: AIRBUS A320
(A320)
More flights by this aircraft type
Origin: KLAX Los Angeles Intl
United States
Destination: KSLC Salt Lake City Intl
United States
More flights between these airports :: More routes between these airports
Route: ORCKA5 LAS Q70 BLIPP Q842 WINEN MLF QWENN5
File this flight plan on PilotEdge
Remarks:
Altitude:
(Current/Filed)
35,000ft
Speed:
(Current/Filed)
460kts
Departed: 23-Nov-20 06:07 PM
Arrived: 23-Nov-20 07:28 PM
Distance/Time
Traveled:
512nm/1:21
Distance/Time
To Go:
Arrived

Flight Plot

Page will automatically refresh every two minutes.

Flight plan parsing failed; only flown route is shown


Map Options




Map Legend


Flown Route
Filed Route
Departure Airport
Arrival Airport
Navaid (VOR, NDB)
Fix

Horizontal Profiles

Position Reports

Time Latitude Longitude Heading Altitude Ground
Speed
23-Nov-20 17:36 33.946360 -118.403319 262 121ft 0kts
23-Nov-20 17:37 33.946360 -118.403319 262 121ft 0kts
23-Nov-20 17:38 33.946360 -118.403319 262 121ft 0kts
23-Nov-20 17:39 33.946360 -118.403319 262 121ft 0kts
23-Nov-20 17:40 33.946360 -118.403319 262 121ft 0kts
23-Nov-20 17:41 33.946361 -118.403319 262 120ft 0kts
23-Nov-20 17:42 33.946361 -118.403319 262 120ft 0kts
23-Nov-20 17:43 33.946361 -118.403319 262 120ft 0kts
23-Nov-20 17:44 33.946361 -118.403319 262 120ft 0kts
23-Nov-20 17:45 33.946361 -118.403319 262 120ft 0kts
23-Nov-20 17:46 33.946361 -118.403319 262 120ft 0kts
23-Nov-20 17:47 33.946361 -118.403319 262 120ft 0kts
23-Nov-20 17:48 33.946361 -118.403319 262 120ft 0kts
23-Nov-20 17:49 33.946361 -118.403319 262 120ft 0kts
23-Nov-20 17:50 33.946361 -118.403319 262 120ft 0kts
23-Nov-20 17:51 33.946361 -118.403319 262 120ft 0kts
23-Nov-20 17:52 33.946361 -118.403319 262 120ft 0kts
23-Nov-20 17:53 33.946361 -118.403319 262 120ft 0kts
23-Nov-20 17:54 33.946361 -118.403319 262 120ft 0kts
23-Nov-20 17:55 33.946361 -118.403319 262 121ft 0kts
23-Nov-20 17:56 33.946427 -118.402700 268 121ft 2kts
23-Nov-20 17:57 33.946150 -118.402386 353 121ft 0kts
23-Nov-20 17:58 33.946150 -118.402386 353 121ft 0kts
23-Nov-20 17:59 33.946150 -118.402386 353 121ft 0kts
23-Nov-20 18:00 33.946150 -118.402386 353 121ft 0kts
23-Nov-20 18:01 33.946150 -118.402386 353 121ft 0kts
23-Nov-20 18:02 33.947360 -118.402571 353 122ft 4kts
23-Nov-20 18:03 33.949122 -118.401298 81 119ft 12kts
23-Nov-20 18:04 33.949464 -118.399264 36 116ft 0kts
23-Nov-20 18:05 33.949518 -118.399215 36 116ft 4kts
23-Nov-20 18:06 33.949462 -118.408843 263 127ft 126kts
23-Nov-20 18:07 33.943991 -118.468104 263 2409ft 207kts
23-Nov-20 18:08 33.936000 -118.548165 264 4658ft 258kts
23-Nov-20 18:09 33.879013 -118.589402 159 6805ft 300kts
23-Nov-20 18:10 33.853945 -118.507513 52 9613ft 288kts
23-Nov-20 18:11 33.920423 -118.445903 33 11116ft 337kts
23-Nov-20 18:12 33.981185 -118.347593 50 12682ft 381kts
23-Nov-20 18:13 34.042118 -118.240179 49 14669ft 393kts
23-Nov-20 18:14 34.104499 -118.129983 48 16477ft 404kts
23-Nov-20 18:15 34.168823 -118.015935 48 18140ft 416kts
23-Nov-20 18:16 34.234181 -117.899650 47 19841ft 421kts
23-Nov-20 18:17 34.300179 -117.781858 47 21393ft 426kts
23-Nov-20 18:18 34.367366 -117.663677 45 22806ft 428kts
23-Nov-20 18:19 34.437511 -117.546205 45 24085ft 433kts
23-Nov-20 18:20 34.508304 -117.427234 45 25262ft 437kts
23-Nov-20 18:21 34.579443 -117.307290 46 26321ft 441kts
23-Nov-20 18:22 34.651440 -117.185477 46 27196ft 446kts
23-Nov-20 18:23 34.723635 -117.062895 46 28326ft 443kts
23-Nov-20 18:24 34.794703 -116.941845 46 29435ft 439kts
23-Nov-20 18:25 34.865331 -116.821134 46 30437ft 438kts
23-Nov-20 18:26 34.938498 -116.703223 39 31296ft 431kts
23-Nov-20 18:27 35.019856 -116.596210 39 32122ft 432kts
23-Nov-20 18:28 35.101659 -116.488178 39 32883ft 433kts
23-Nov-20 18:29 35.183462 -116.379802 40 33634ft 435kts
23-Nov-20 18:30 35.265367 -116.270998 41 34301ft 437kts
23-Nov-20 18:31 35.347875 -116.160995 41 34880ft 439kts
23-Nov-20 18:32 35.430453 -116.050557 41 34998ft 439kts
23-Nov-20 18:33 35.513339 -115.939347 42 34986ft 448kts
23-Nov-20 18:34 35.597361 -115.826212 42 35015ft 451kts
23-Nov-20 18:35 35.681673 -115.711336 42 35029ft 452kts
23-Nov-20 18:36 35.765152 -115.596389 42 35004ft 451kts
23-Nov-20 18:37 35.848620 -115.481090 42 34972ft 451kts
23-Nov-20 18:38 35.931936 -115.365604 43 34946ft 453kts
23-Nov-20 18:39 36.015808 -115.248947 43 34943ft 456kts
23-Nov-20 18:40 36.102533 -115.135228 36 34988ft 451kts
23-Nov-20 18:41 36.197251 -115.033352 36 34977ft 454kts
23-Nov-20 18:42 36.292854 -114.930084 37 34983ft 458kts
23-Nov-20 18:43 36.388963 -114.825934 37 34987ft 461kts
23-Nov-20 18:44 36.485598 -114.720899 37 35001ft 464kts
23-Nov-20 18:45 36.583025 -114.614661 37 35008ft 466kts
23-Nov-20 18:47 36.680432 -114.508070 37 35011ft 468kts
23-Nov-20 18:48 36.785980 -114.415727 28 35015ft 463kts
23-Nov-20 18:49 36.894921 -114.330197 28 35007ft 462kts
23-Nov-20 18:50 37.003193 -114.244912 28 34989ft 460kts
23-Nov-20 18:51 37.111070 -114.159649 28 34982ft 459kts
23-Nov-20 18:52 37.212206 -114.062696 50 34994ft 470kts
23-Nov-20 18:53 37.313957 -113.966312 27 34998ft 462kts
23-Nov-20 18:54 37.425216 -113.883542 27 34991ft 467kts
23-Nov-20 18:55 37.536771 -113.799911 27 35062ft 468kts
23-Nov-20 18:56 37.648382 -113.715927 27 35078ft 468kts
23-Nov-20 18:57 37.759655 -113.631901 27 35053ft 466kts
23-Nov-20 18:58 37.870652 -113.547764 27 35027ft 465kts
23-Nov-20 18:59 37.976004 -113.451729 38 35010ft 471kts
23-Nov-20 19:00 38.073360 -113.341241 39 35032ft 471kts
23-Nov-20 19:01 38.171135 -113.229908 39 35011ft 472kts
23-Nov-20 19:02 38.268668 -113.118437 39 35010ft 474kts
23-Nov-20 19:02 38.351301 -113.025444 33 35025ft 475kts
23-Nov-20 19:04 38.490234 -112.944091 19 35065ft 474kts
23-Nov-20 19:04 38.591790 -112.889867 19 35072ft 475kts
23-Nov-20 19:06 38.733446 -112.813899 19 35074ft 475kts
23-Nov-20 19:06 38.835173 -112.759169 19 35066ft 475kts
23-Nov-20 19:07 38.956417 -112.693664 19 35065ft 475kts
23-Nov-20 19:08 39.078008 -112.627751 19 35074ft 475kts
23-Nov-20 19:09 39.199588 -112.561590 19 35071ft 475kts
23-Nov-20 19:10 39.320922 -112.495135 20 35060ft 475kts
23-Nov-20 19:11 39.441755 -112.425576 20 34846ft 474kts
23-Nov-20 19:12 39.563297 -112.355580 20 31804ft 492kts
23-Nov-20 19:13 39.691607 -112.281395 21 28348ft 511kts
23-Nov-20 19:14 39.821439 -112.206104 21 25501ft 507kts
23-Nov-20 19:15 39.948750 -112.131977 21 21547ft 466kts
23-Nov-20 19:16 40.069632 -112.059524 22 17576ft 421kts
23-Nov-20 19:17 40.174298 -111.996105 23 14224ft 405kts
23-Nov-20 19:18 40.273766 -111.940875 10 11097ft 370kts
23-Nov-20 19:19 40.361797 -111.930343 3 11021ft 292kts
23-Nov-20 19:20 40.436465 -111.933921 353 11021ft 247kts
23-Nov-20 19:21 40.503694 -111.941554 352 10165ft 238kts
23-Nov-20 19:22 40.565308 -111.948852 354 9153ft 211kts
23-Nov-20 19:23 40.623774 -111.955610 354 7616ft 218kts
23-Nov-20 19:24 40.685341 -111.962762 355 5989ft 216kts
23-Nov-20 19:25 40.734683 -111.968555 353 5035ft 148kts
23-Nov-20 19:26 40.774992 -111.973136 352 4283ft 144kts
23-Nov-20 19:27 40.795391 -111.976529 324 4236ft 15kts
23-Nov-20 19:28 40.795724 -111.976844 324 4236ft 0kts
23-Nov-20 19:29 40.795860 -111.977664 216 4236ft 5kts
23-Nov-20 19:30 40.792412 -111.977373 175 4236ft 10kts
23-Nov-20 19:31 40.791834 -111.981228 264 4236ft 14kts
23-Nov-20 19:32 40.790623 -111.985183 175 4236ft 11kts
23-Nov-20 19:33 40.788844 -111.986174 97 4236ft 4kts

Navigation Log

Ident Type
Flight plan parsing failed, navigation log unavailable